Time;durP1;ratioP1;P1;durP2;ratioP2;P2;SDS_P1;SDS_P2;PMS_P1;PMS_P2;Temp;Humidity;BMP_temperature;BMP_pressure;BME280_temperature;BME280_humidity;BME280_pressure;Samples;Min_cycle;Max_cycle;Signal;HPM_P1;HPM_P2
2023/06/10 00:02:28;;;;;;;10.73;5.63;;;;;;;;;;6246154;23;20038;-64
2023/06/10 00:04:56;;;;;;;10.07;5.35;;;;;;;;;;6219633;23;20016;-64
2023/06/10 00:07:25;;;;;;;12.95;6.05;;;;;;;;;;6246106;23;20335;-63
2023/06/10 00:09:52;;;;;;;9.77;5.18;;;;;;;;;;6246173;23;20016;-64
2023/06/10 00:12:20;;;;;;;11.52;5.65;;;;;;;;;;6246207;23;20019;-64
2023/06/10 00:14:50;;;;;;;8.32;4.88;;;;;;;;;;6246375;23;20028;-65
2023/06/10 00:17:18;;;;;;;10.43;5.32;;;;;;;;;;6246223;23;20046;-64
2023/06/10 00:19:46;;;;;;;10.10;5.20;;;;;;;;;;6245940;23;20453;-64
2023/06/10 00:22:14;;;;;;;9.15;5.35;;;;;;;;;;6246346;22;20016;-65
2023/06/10 00:24:42;;;;;;;8.35;5.13;;;;;;;;;;6244768;23;20338;-65
2023/06/10 00:27:10;;;;;;;9.18;5.28;;;;;;;;;;6245877;23;20395;-64
2023/06/10 00:29:38;;;;;;;9.57;5.22;;;;;;;;;;6296177;22;20016;-63
2023/06/10 00:32:06;;;;;;;11.65;5.10;;;;;;;;;;6245990;23;20071;-64
2023/06/10 00:34:35;;;;;;;11.93;5.65;;;;;;;;;;6295847;22;20119;-64
2023/06/10 00:37:03;;;;;;;11.57;5.70;;;;;;;;;;6295919;22;20103;-64
2023/06/10 00:39:31;;;;;;;10.30;5.10;;;;;;;;;;6246039;22;20402;-64
2023/06/10 00:41:58;;;;;;;9.43;5.53;;;;;;;;;;6244536;23;20047;-65
2023/06/10 00:44:27;;;;;;;8.80;5.30;;;;;;;;;;6295769;22;20022;-64
2023/06/10 00:46:55;;;;;;;13.52;5.78;;;;;;;;;;6244291;23;20043;-63
2023/06/10 00:49:23;;;;;;;8.32;5.53;;;;;;;;;;6295678;22;20517;-63
2023/06/10 00:51:52;;;;;;;12.45;5.65;;;;;;;;;;6244670;23;20058;-65
2023/06/10 00:54:20;;;;;;;10.02;5.22;;;;;;;;;;6245658;22;20020;-64
2023/06/10 00:56:48;;;;;;;9.95;5.88;;;;;;;;;;6295500;22;20439;-64
2023/06/10 01:02:20;;;;;;;13.05;6.15;;;;;;;;;;6244208;23;20012;-64
2023/06/10 01:08:12;;;;;;;10.77;5.90;;;;;;;;;;6295879;22;19979;-64
2023/06/10 01:10:44;;;;;;;12.15;6.07;;;;;;;;;;6245693;23;20020;-64
2023/06/10 01:13:12;;;;;;;13.27;5.85;;;;;;;;;;6244195;23;20084;-64
2023/06/10 01:15:39;;;;;;;10.88;5.97;;;;;;;;;;6295240;22;20024;-64
2023/06/10 01:18:14;;;;;;;8.32;5.47;;;;;;;;;;6295354;22;20458;-64
2023/06/10 01:20:44;;;;;;;8.98;6.03;;;;;;;;;;6245864;22;20094;-64
2023/06/10 01:23:11;;;;;;;10.90;5.70;;;;;;;;;;6243994;23;20016;-64
2023/06/10 01:25:44;;;;;;;11.15;5.90;;;;;;;;;;6245556;22;20346;-65
2023/06/10 01:28:11;;;;;;;11.35;6.53;;;;;;;;;;6243809;23;20020;-65
2023/06/10 01:30:45;;;;;;;10.73;5.57;;;;;;;;;;6245483;22;20043;-65
2023/06/10 01:33:13;;;;;;;12.47;6.20;;;;;;;;;;6244115;23;20473;-65
2023/06/10 01:35:44;;;;;;;13.85;6.50;;;;;;;;;;6244191;23;20261;-65
2023/06/10 01:38:13;;;;;;;10.40;6.22;;;;;;;;;;6244179;23;20016;-65
2023/06/10 01:40:41;;;;;;;11.02;6.10;;;;;;;;;;6244097;23;20373;-65
2023/06/10 01:43:09;;;;;;;9.70;6.28;;;;;;;;;;6244231;23;20016;-65
2023/06/10 01:45:36;;;;;;;9.95;6.03;;;;;;;;;;6244105;23;20084;-64
2023/06/10 01:48:04;;;;;;;9.52;5.90;;;;;;;;;;6295903;22;20074;-64
2023/06/10 01:50:32;;;;;;;10.65;6.00;;;;;;;;;;6295585;22;20031;-64
2023/06/10 01:53:00;;;;;;;10.93;6.07;;;;;;;;;;6244063;23;20016;-63
2023/06/10 01:55:27;;;;;;;10.77;6.15;;;;;;;;;;6295268;22;20016;-64
2023/06/10 01:57:55;;;;;;;12.75;6.05;;;;;;;;;;6295395;22;20020;-64
2023/06/10 02:00:23;;;;;;;11.43;6.70;;;;;;;;;;6295232;22;20020;-63
2023/06/10 02:02:51;;;;;;;15.25;7.10;;;;;;;;;;6244093;23;20020;-64
2023/06/10 02:05:19;;;;;;;8.80;6.47;;;;;;;;;;6245712;23;20086;-63
2023/06/10 02:07:48;;;;;;;14.27;6.93;;;;;;;;;;6243986;23;20020;-63
2023/06/10 02:10:16;;;;;;;9.98;6.03;;;;;;;;;;6244251;23;20442;-63
2023/06/10 02:12:43;;;;;;;13.00;6.22;;;;;;;;;;6221159;23;20102;-64
2023/06/10 02:15:11;;;;;;;10.50;6.90;;;;;;;;;;6245911;23;20215;-64
2023/06/10 02:17:38;;;;;;;11.52;6.75;;;;;;;;;;6220460;23;20024;-63
2023/06/10 02:20:07;;;;;;;11.90;6.85;;;;;;;;;;6220760;23;20027;-64
2023/06/10 02:22:34;;;;;;;12.63;7.25;;;;;;;;;;6220702;23;20027;-63
2023/06/10 02:25:02;;;;;;;12.90;6.45;;;;;;;;;;6220889;23;20031;-63
2023/06/10 02:27:31;;;;;;;17.20;7.28;;;;;;;;;;6220443;23;20040;-63
2023/06/10 02:29:59;;;;;;;11.35;6.28;;;;;;;;;;6247627;23;20016;-63
2023/06/10 02:32:28;;;;;;;11.43;6.78;;;;;;;;;;6220535;23;20115;-63
2023/06/10 02:34:55;;;;;;;11.38;6.97;;;;;;;;;;6220472;23;20066;-63
2023/06/10 02:37:24;;;;;;;12.65;6.90;;;;;;;;;;6220392;23;20446;-64
2023/06/10 02:39:52;;;;;;;10.75;6.45;;;;;;;;;;6220220;23;20024;-64
2023/06/10 02:42:20;;;;;;;13.13;7.20;;;;;;;;;;6221040;23;20055;-63
2023/06/10 02:44:49;;;;;;;13.63;7.30;;;;;;;;;;6220410;23;20319;-63
2023/06/10 02:47:27;;;;;;;14.35;6.80;;;;;;;;;;6220368;23;20027;-63
2023/06/10 02:49:55;;;;;;;15.88;7.63;;;;;;;;;;6220374;23;20050;-63
2023/06/10 02:52:23;;;;;;;16.65;7.20;;;;;;;;;;6220132;23;20364;-63
2023/06/10 02:54:51;;;;;;;13.88;7.53;;;;;;;;;;6220350;23;20024;-64
2023/06/10 02:57:19;;;;;;;16.15;7.00;;;;;;;;;;6220264;23;20462;-64
2023/06/10 02:59:46;;;;;;;17.63;7.47;;;;;;;;;;6220414;23;20064;-64
2023/06/10 03:02:15;;;;;;;13.80;6.75;;;;;;;;;;6219995;23;20031;-64
2023/06/10 03:04:50;;;;;;;14.27;7.25;;;;;;;;;;6219823;23;20016;-63
2023/06/10 03:07:20;;;;;;;14.25;7.60;;;;;;;;;;6219910;23;20020;-64
2023/06/10 03:09:50;;;;;;;16.63;7.75;;;;;;;;;;6220171;23;20409;-64
2023/06/10 03:12:18;;;;;;;16.42;7.80;;;;;;;;;;6220616;23;20044;-64
2023/06/10 03:14:48;;;;;;;16.52;7.80;;;;;;;;;;6220204;23;20024;-63
2023/06/10 03:17:16;;;;;;;13.73;7.97;;;;;;;;;;6220041;23;20032;-63
2023/06/10 03:19:45;;;;;;;10.90;7.50;;;;;;;;;;6220475;23;20058;-64
2023/06/10 03:22:14;;;;;;;14.25;7.75;;;;;;;;;;6219799;23;20028;-63
2023/06/10 03:24:57;;;;;;;12.98;7.10;;;;;;;;;;6220068;23;20351;-63
2023/06/10 03:27:25;;;;;;;12.00;7.13;;;;;;;;;;6219995;23;20074;-63
2023/06/10 03:29:59;;;;;;;17.77;7.40;;;;;;;;;;6219943;23;20070;-63
2023/06/10 03:32:27;;;;;;;17.00;8.68;;;;;;;;;;6246822;23;20023;-64
2023/06/10 03:34:57;;;;;;;13.30;7.43;;;;;;;;;;6246846;23;20442;-63
2023/06/10 03:37:27;;;;;;;13.13;7.40;;;;;;;;;;6219632;23;20020;-64
2023/06/10 03:39:55;;;;;;;12.93;7.30;;;;;;;;;;6219848;23;20023;-64
2023/06/10 03:42:23;;;;;;;11.98;7.60;;;;;;;;;;6219758;23;20017;-64
2023/06/10 03:44:50;;;;;;;13.77;7.25;;;;;;;;;;6219696;23;20024;-63
2023/06/10 03:47:18;;;;;;;11.65;7.45;;;;;;;;;;6220059;23;20016;-64
2023/06/10 03:49:46;;;;;;;13.32;7.35;;;;;;;;;;6219637;23;20379;-63
2023/06/10 03:52:14;;;;;;;13.43;7.20;;;;;;;;;;6220172;23;20020;-65
2023/06/10 03:54:42;;;;;;;17.70;7.65;;;;;;;;;;6219910;23;20047;-63
2023/06/10 03:57:09;;;;;;;10.85;6.82;;;;;;;;;;6219463;23;20016;-63
2023/06/10 03:59:37;;;;;;;12.27;7.15;;;;;;;;;;6219495;23;20016;-64
2023/06/10 04:02:06;;;;;;;13.73;7.32;;;;;;;;;;6220006;23;20024;-64
2023/06/10 04:04:34;;;;;;;12.10;7.03;;;;;;;;;;6219831;23;20020;-64
2023/06/10 04:07:02;;;;;;;11.82;7.90;;;;;;;;;;6220405;23;20020;-64
2023/06/10 04:09:30;;;;;;;12.10;7.65;;;;;;;;;;6220179;23;20020;-65
2023/06/10 04:11:58;;;;;;;13.43;7.80;;;;;;;;;;6220423;23;20454;-64
2023/06/10 04:14:25;;;;;;;12.43;7.60;;;;;;;;;;6219955;23;20066;-63
2023/06/10 04:16:53;;;;;;;12.85;7.70;;;;;;;;;;6220225;23;20050;-64
2023/06/10 04:19:21;;;;;;;14.23;7.70;;;;;;;;;;6219912;23;20023;-64
2023/06/10 04:21:48;;;;;;;12.60;7.53;;;;;;;;;;6219649;23;20016;-64
2023/06/10 04:24:16;;;;;;;19.13;9.05;;;;;;;;;;6246906;23;20016;-64
2023/06/10 04:26:45;;;;;;;15.60;9.05;;;;;;;;;;6220008;23;20095;-64
2023/06/10 04:29:14;;;;;;;13.40;8.55;;;;;;;;;;6220435;23;20027;-64
2023/06/10 04:31:41;;;;;;;14.18;7.90;;;;;;;;;;6219762;23;20111;-64
2023/06/10 04:34:09;;;;;;;18.35;9.13;;;;;;;;;;6218338;23;20107;-64
2023/06/10 04:36:37;;;;;;;18.88;11.02;;;;;;;;;;6219411;23;20027;-64
2023/06/10 04:39:05;;;;;;;17.77;12.70;;;;;;;;;;6219652;23;20418;-65
2023/06/10 04:41:34;;;;;;;20.13;13.80;;;;;;;;;;6219439;23;20086;-64
2023/06/10 04:44:02;;;;;;;20.38;13.82;;;;;;;;;;6245550;23;20039;-64
2023/06/10 04:46:31;;;;;;;26.58;18.13;;;;;;;;;;6219047;23;20028;-63
2023/06/10 04:48:59;;;;;;;28.58;17.33;;;;;;;;;;6218790;23;20023;-63
2023/06/10 04:51:26;;;;;;;23.48;13.88;;;;;;;;;;6219073;23;20032;-64
2023/06/10 04:53:54;;;;;;;24.60;12.82;;;;;;;;;;6219464;23;20016;-63
2023/06/10 04:56:22;;;;;;;22.02;12.90;;;;;;;;;;6246280;23;20026;-63
2023/06/10 04:58:50;;;;;;;22.35;13.38;;;;;;;;;;6219604;23;20013;-63
2023/06/10 05:01:17;;;;;;;30.33;12.43;;;;;;;;;;6218948;23;20050;-63
2023/06/10 05:03:45;;;;;;;16.27;10.32;;;;;;;;;;6246071;23;20016;-63
2023/06/10 05:06:13;;;;;;;16.30;10.07;;;;;;;;;;6246099;23;20146;-63
2023/06/10 05:08:40;;;;;;;15.07;9.68;;;;;;;;;;6246002;23;20023;-63
2023/06/10 05:11:08;;;;;;;14.25;8.82;;;;;;;;;;6245948;23;20335;-63
2023/06/10 05:13:36;;;;;;;12.73;8.82;;;;;;;;;;6246059;23;20012;-63
2023/06/10 05:16:03;;;;;;;14.05;8.77;;;;;;;;;;6219156;23;20016;-63
2023/06/10 05:18:31;;;;;;;12.45;8.57;;;;;;;;;;6245083;23;20434;-65
2023/06/10 05:20:59;;;;;;;13.15;8.30;;;;;;;;;;6245045;23;20434;-65
2023/06/10 05:23:26;;;;;;;14.15;8.50;;;;;;;;;;6245180;23;20012;-64
2023/06/10 05:25:55;;;;;;;19.27;10.90;;;;;;;;;;6245034;23;20023;-65
2023/06/10 05:28:22;;;;;;;15.85;9.77;;;;;;;;;;6245564;23;20394;-64
2023/06/10 05:30:50;;;;;;;14.63;9.32;;;;;;;;;;6244975;23;20092;-64
2023/06/10 05:33:17;;;;;;;16.48;8.95;;;;;;;;;;6245100;23;20023;-64
2023/06/10 05:35:45;;;;;;;16.05;9.68;;;;;;;;;;6245210;23;20333;-64
2023/06/10 05:38:12;;;;;;;16.08;8.63;;;;;;;;;;6245372;23;20446;-64
2023/06/10 05:40:40;;;;;;;13.40;8.95;;;;;;;;;;6245137;23;20019;-64
2023/06/10 05:43:09;;;;;;;16.17;9.25;;;;;;;;;;6245201;23;20016;-64
2023/06/10 05:45:37;;;;;;;17.20;9.68;;;;;;;;;;6219163;23;20016;-64
2023/06/10 05:48:05;;;;;;;15.57;9.88;;;;;;;;;;6247500;23;20016;-63
2023/06/10 05:50:37;;;;;;;16.25;10.25;;;;;;;;;;6247761;23;20331;-62
2023/06/10 05:53:06;;;;;;;16.15;9.85;;;;;;;;;;6247277;23;20020;-60
2023/06/10 05:55:34;;;;;;;15.90;10.75;;;;;;;;;;6247666;23;20086;-62
2023/06/10 05:58:02;;;;;;;14.65;9.60;;;;;;;;;;6247212;23;20191;-62
2023/06/10 06:00:30;;;;;;;14.40;9.02;;;;;;;;;;6247641;23;20015;-62
2023/06/10 06:02:58;;;;;;;17.02;10.02;;;;;;;;;;6220245;23;20346;-62
2023/06/10 06:05:26;;;;;;;15.20;9.13;;;;;;;;;;6247116;23;20442;-62
2023/06/10 06:07:53;;;;;;;13.38;8.65;;;;;;;;;;6246855;23;20020;-60
2023/06/10 06:10:21;;;;;;;16.80;8.65;;;;;;;;;;6247062;23;20020;-60
2023/06/10 06:12:48;;;;;;;11.40;8.55;;;;;;;;;;6220101;23;20446;-61
2023/06/10 06:15:16;;;;;;;16.80;9.45;;;;;;;;;;6219715;23;20079;-61
2023/06/10 06:17:43;;;;;;;16.50;9.02;;;;;;;;;;6246715;23;20382;-61
2023/06/10 06:20:11;;;;;;;18.42;9.00;;;;;;;;;;6246279;23;20091;-61
2023/06/10 06:22:39;;;;;;;15.95;8.82;;;;;;;;;;6246772;23;20012;-62
2023/06/10 06:25:07;;;;;;;21.60;9.05;;;;;;;;;;6246995;23;20311;-61
2023/06/10 06:27:35;;;;;;;18.02;9.25;;;;;;;;;;6246621;23;20334;-61
2023/06/10 06:30:03;;;;;;;12.40;8.85;;;;;;;;;;6247103;23;20044;-61
2023/06/10 06:32:31;;;;;;;14.77;8.90;;;;;;;;;;6220346;23;20087;-62
2023/06/10 06:34:58;;;;;;;15.75;9.02;;;;;;;;;;6245770;23;20062;-61
2023/06/10 06:37:26;;;;;;;18.38;9.60;;;;;;;;;;6245855;23;20024;-62
2023/06/10 06:40:07;;;;;;;22.30;9.48;;;;;;;;;;6218386;23;20483;-62
2023/06/10 06:42:35;;;;;;;20.63;9.38;;;;;;;;;;6219423;23;20016;-62
2023/06/10 06:45:23;;;;;;;15.30;8.60;;;;;;;;;;6245038;23;20020;-62
2023/06/10 06:47:51;;;;;;;12.98;8.75;;;;;;;;;;6246334;23;20020;-62
2023/06/10 06:50:18;;;;;;;16.65;8.75;;;;;;;;;;6218369;23;20043;-62
2023/06/10 06:52:46;;;;;;;17.83;9.10;;;;;;;;;;6219448;23;20386;-62
2023/06/10 06:55:13;;;;;;;17.95;8.85;;;;;;;;;;6246742;23;20023;-61
2023/06/10 06:57:41;;;;;;;17.13;9.48;;;;;;;;;;6246257;23;20016;-63
2023/06/10 07:00:09;;;;;;;16.52;9.05;;;;;;;;;;6219339;23;20389;-62
2023/06/10 07:02:36;;;;;;;18.67;9.30;;;;;;;;;;6219980;23;20339;-62
2023/06/10 07:05:05;;;;;;;18.15;8.73;;;;;;;;;;6246311;23;20335;-62
2023/06/10 07:07:33;;;;;;;16.02;9.18;;;;;;;;;;6219444;23;20024;-62
2023/06/10 07:10:00;;;;;;;19.13;9.13;;;;;;;;;;6246098;23;20026;-62
2023/06/10 07:12:36;;;;;;;15.77;9.60;;;;;;;;;;6246214;23;20396;-63
2023/06/10 07:15:06;;;;;;;13.45;9.20;;;;;;;;;;6219104;23;20022;-63
2023/06/10 07:17:43;;;;;;;14.02;9.32;;;;;;;;;;6221397;23;20024;-64
2023/06/10 07:20:11;;;;;;;17.30;9.50;;;;;;;;;;6219824;23;20089;-63
2023/06/10 07:22:39;;;;;;;16.38;9.13;;;;;;;;;;6219483;23;20087;-64
2023/06/10 07:25:15;;;;;;;15.18;9.15;;;;;;;;;;6218780;23;20369;-63
2023/06/10 07:27:43;;;;;;;19.08;9.02;;;;;;;;;;6245533;23;20047;-64
2023/06/10 07:30:11;;;;;;;17.02;9.13;;;;;;;;;;6245843;23;20024;-63
2023/06/10 07:32:41;;;;;;;17.15;9.48;;;;;;;;;;6245460;23;20016;-63
2023/06/10 07:35:10;;;;;;;19.20;8.85;;;;;;;;;;6246111;23;20081;-63
2023/06/10 07:37:38;;;;;;;17.73;8.88;;;;;;;;;;6219277;23;20020;-63
2023/06/10 07:40:06;;;;;;;22.80;9.80;;;;;;;;;;6245331;23;20342;-63
2023/06/10 07:42:35;;;;;;;18.35;9.52;;;;;;;;;;6245865;23;20319;-63
2023/06/10 07:45:08;;;;;;;13.77;9.00;;;;;;;;;;6245445;23;20016;-65
2023/06/10 07:47:40;;;;;;;16.23;10.10;;;;;;;;;;6220193;23;20051;-64
2023/06/10 07:50:08;;;;;;;22.90;10.70;;;;;;;;;;6245924;23;20027;-63
2023/06/10 07:52:36;;;;;;;18.75;9.65;;;;;;;;;;6243905;23;20385;-63
2023/06/10 07:55:05;;;;;;;15.95;9.82;;;;;;;;;;6245077;23;20095;-62
2023/06/10 07:57:36;;;;;;;19.13;10.75;;;;;;;;;;6245027;23;20439;-62
2023/06/10 08:00:04;;;;;;;16.17;9.40;;;;;;;;;;6246004;23;20020;-62
2023/06/10 08:02:38;;;;;;;14.75;9.00;;;;;;;;;;6220624;23;20031;-62
2023/06/10 08:05:07;;;;;;;17.17;9.02;;;;;;;;;;6219336;23;20043;-62
2023/06/10 08:07:35;;;;;;;15.00;8.48;;;;;;;;;;6245835;23;20016;-62
2023/06/10 08:10:03;;;;;;;15.90;9.05;;;;;;;;;;6245600;23;20026;-63
2023/06/10 08:12:31;;;;;;;14.32;8.95;;;;;;;;;;6219072;23;20050;-63
2023/06/10 08:14:59;;;;;;;12.07;8.05;;;;;;;;;;6245545;23;20058;-62
2023/06/10 08:17:26;;;;;;;12.63;8.30;;;;;;;;;;6245579;23;20043;-62
2023/06/10 08:19:54;;;;;;;13.27;8.52;;;;;;;;;;6245604;23;20342;-61
2023/06/10 08:22:21;;;;;;;13.73;7.72;;;;;;;;;;6245610;23;20024;-62
2023/06/10 08:24:49;;;;;;;15.95;8.20;;;;;;;;;;6218860;23;20027;-62
2023/06/10 08:27:16;;;;;;;13.18;7.90;;;;;;;;;;6245710;23;20023;-61
2023/06/10 08:29:44;;;;;;;10.18;7.82;;;;;;;;;;6245416;23;20066;-61
2023/06/10 08:32:11;;;;;;;14.80;7.32;;;;;;;;;;6244977;23;20012;-61
2023/06/10 08:34:40;;;;;;;10.63;7.32;;;;;;;;;;6245327;23;20020;-61
2023/06/10 08:37:08;;;;;;;10.35;7.10;;;;;;;;;;6245383;23;20016;-61
2023/06/10 08:39:35;;;;;;;10.90;7.47;;;;;;;;;;6218279;23;20024;-61
2023/06/10 08:42:21;;;;;;;18.83;10.05;;;;;;;;;;6245253;23;20015;-61
2023/06/10 08:44:49;;;;;;;13.63;8.50;;;;;;;;;;6245011;23;20023;-61
2023/06/10 08:47:17;;;;;;;13.85;7.72;;;;;;;;;;6245063;23;20042;-61
2023/06/10 08:49:46;;;;;;;15.15;8.27;;;;;;;;;;6218180;23;20024;-61
2023/06/10 08:52:19;;;;;;;12.93;7.28;;;;;;;;;;6217632;23;20023;-61
2023/06/10 08:54:50;;;;;;;18.80;12.60;;;;;;;;;;6245108;23;20020;-60
2023/06/10 08:57:21;;;;;;;12.13;7.53;;;;;;;;;;6243889;23;20039;-62
2023/06/10 08:59:49;;;;;;;11.73;7.60;;;;;;;;;;6244131;23;20026;-62
2023/06/10 09:02:19;;;;;;;15.23;10.70;;;;;;;;;;6217188;23;20040;-62
2023/06/10 09:04:50;;;;;;;14.27;8.02;;;;;;;;;;6244941;23;20504;-60
2023/06/10 09:07:18;;;;;;;23.08;17.67;;;;;;;;;;6245182;23;20083;-61
2023/06/10 09:09:47;;;;;;;26.42;19.27;;;;;;;;;;6244920;23;20099;-61
2023/06/10 09:12:16;;;;;;;44.47;36.95;;;;;;;;;;6245055;23;20454;-61
2023/06/10 09:14:43;;;;;;;72.68;65.30;;;;;;;;;;6245179;23;20013;-61
2023/06/10 09:17:11;;;;;;;36.45;28.13;;;;;;;;;;6245027;23;20024;-62
2023/06/10 09:19:39;;;;;;;11.73;8.50;;;;;;;;;;6245041;23;20100;-61
2023/06/10 09:22:07;;;;;;;12.68;6.95;;;;;;;;;;6245027;23;20070;-61
2023/06/10 09:24:35;;;;;;;11.15;6.82;;;;;;;;;;6218800;23;20485;-61
2023/06/10 09:27:03;;;;;;;26.70;22.88;;;;;;;;;;6218689;23;20127;-61
2023/06/10 09:29:31;;;;;;;17.63;12.20;;;;;;;;;;6244743;23;20083;-62
2023/06/10 09:31:59;;;;;;;16.65;9.15;;;;;;;;;;6216966;23;20070;-61
2023/06/10 09:34:36;;;;;;;16.23;8.80;;;;;;;;;;6217023;23;20332;-63
2023/06/10 09:37:05;;;;;;;14.15;8.73;;;;;;;;;;6244175;23;20342;-61
2023/06/10 09:39:33;;;;;;;17.55;8.60;;;;;;;;;;6243425;23;20435;-61
2023/06/10 09:42:00;;;;;;;14.43;8.82;;;;;;;;;;6245050;23;20339;-61
2023/06/10 09:44:28;;;;;;;12.93;8.65;;;;;;;;;;6244961;23;20016;-61
2023/06/10 09:46:59;;;;;;;13.02;7.95;;;;;;;;;;6245225;23;20497;-61
2023/06/10 09:49:29;;;;;;;17.17;9.60;;;;;;;;;;6244891;23;20023;-62
2023/06/10 09:51:57;;;;;;;18.55;10.27;;;;;;;;;;6194167;23;20430;-62
2023/06/10 09:54:24;;;;;;;17.42;10.35;;;;;;;;;;6244929;23;20046;-61
2023/06/10 09:56:52;;;;;;;14.38;9.90;;;;;;;;;;6244908;23;20020;-62
2023/06/10 09:59:33;;;;;;;15.50;9.82;;;;;;;;;;6245315;23;20017;-61
2023/06/10 10:02:01;;;;;;;14.73;9.93;;;;;;;;;;6244730;23;20019;-62
2023/06/10 10:04:28;;;;;;;15.27;9.02;;;;;;;;;;6218136;23;20020;-62
2023/06/10 10:06:56;;;;;;;15.13;9.23;;;;;;;;;;6218323;23;20018;-62
2023/06/10 10:09:23;;;;;;;20.38;10.18;;;;;;;;;;6218410;23;20020;-61
2023/06/10 10:11:52;;;;;;;13.75;9.70;;;;;;;;;;6245066;23;20453;-62
2023/06/10 10:14:20;;;;;;;13.10;8.30;;;;;;;;;;6244889;23;20378;-61
2023/06/10 10:16:48;;;;;;;12.60;8.48;;;;;;;;;;6244737;23;20026;-61
2023/06/10 10:19:19;;;;;;;13.27;7.82;;;;;;;;;;6217983;23;20020;-61
2023/06/10 10:22:00;;;;;;;13.32;8.10;;;;;;;;;;6244527;23;20046;-61
2023/06/10 10:24:48;;;;;;;14.93;7.47;;;;;;;;;;6244279;23;20335;-62
2023/06/10 10:27:18;;;;;;;11.38;6.90;;;;;;;;;;6198727;23;20030;-61
2023/06/10 10:29:48;;;;;;;12.68;6.43;;;;;;;;;;6245112;23;20047;-61
2023/06/10 10:32:16;;;;;;;13.00;6.65;;;;;;;;;;6245865;23;20012;-61
2023/06/10 10:34:52;;;;;;;12.80;6.63;;;;;;;;;;6246310;23;20074;-61
2023/06/10 10:37:21;;;;;;;11.48;5.25;;;;;;;;;;6246551;23;20020;-61
2023/06/10 10:39:49;;;;;;;7.30;4.50;;;;;;;;;;6246404;23;20023;-61
2023/06/10 10:42:17;;;;;;;7.45;4.22;;;;;;;;;;6220429;23;20020;-61
2023/06/10 10:44:45;;;;;;;9.57;4.50;;;;;;;;;;6246242;23;20088;-61
2023/06/10 10:47:13;;;;;;;7.63;4.47;;;;;;;;;;6246560;23;20039;-62
2023/06/10 10:49:43;;;;;;;6.72;4.40;;;;;;;;;;6246374;23;20014;-61
2023/06/10 10:52:14;;;;;;;10.40;5.70;;;;;;;;;;6246099;23;20016;-61
2023/06/10 10:54:46;;;;;;;6.32;4.35;;;;;;;;;;6246784;23;20111;-62
2023/06/10 10:57:15;;;;;;;8.82;4.00;;;;;;;;;;6246389;23;20020;-61
2023/06/10 10:59:51;;;;;;;8.75;4.68;;;;;;;;;;6219633;23;20429;-62
2023/06/10 11:02:41;;;;;;;6.63;4.25;;;;;;;;;;6246280;23;20315;-61
2023/06/10 11:05:09;;;;;;;8.73;4.20;;;;;;;;;;6246172;23;20051;-61
2023/06/10 11:07:38;;;;;;;9.98;4.38;;;;;;;;;;6220021;23;20008;-61
2023/06/10 11:10:15;;;;;;;8.23;4.30;;;;;;;;;;6246160;23;20062;-61
2023/06/10 11:12:46;;;;;;;7.30;4.00;;;;;;;;;;6245860;23;20016;-61
2023/06/10 11:15:13;;;;;;;5.40;4.25;;;;;;;;;;6246021;23;20488;-62
2023/06/10 11:18:00;;;;;;;8.13;4.32;;;;;;;;;;6245623;23;20097;-61
2023/06/10 11:20:46;;;;;;;7.82;4.15;;;;;;;;;;6245422;23;20019;-61
2023/06/10 11:23:30;;;;;;;8.40;4.60;;;;;;;;;;6245886;23;20451;-61
2023/06/10 11:26:16;;;;;;;9.27;4.90;;;;;;;;;;6246138;23;20020;-61
2023/06/10 11:28:47;;;;;;;6.95;4.47;;;;;;;;;;6246005;23;20012;-61
2023/06/10 11:31:24;;;;;;;7.50;4.50;;;;;;;;;;6245874;23;20016;-61
2023/06/10 11:33:59;;;;;;;10.95;5.97;;;;;;;;;;6245950;23;20398;-62
2023/06/10 11:36:27;;;;;;;8.63;5.38;;;;;;;;;;6246293;23;20012;-61
2023/06/10 11:38:59;;;;;;;7.45;4.43;;;;;;;;;;6219170;23;20450;-61
2023/06/10 11:41:27;;;;;;;7.35;4.70;;;;;;;;;;6246176;23;20039;-61
2023/06/10 11:43:58;;;;;;;6.65;4.45;;;;;;;;;;6245197;23;20016;-61
2023/06/10 11:46:27;;;;;;;7.97;4.22;;;;;;;;;;6246136;23;20016;-61
2023/06/10 11:48:56;;;;;;;9.98;4.55;;;;;;;;;;6246268;23;20024;-61
2023/06/10 11:51:27;;;;;;;13.10;8.32;;;;;;;;;;6246350;23;20016;-61
2023/06/10 11:53:55;;;;;;;7.40;4.18;;;;;;;;;;6245960;23;20012;-61
2023/06/10 11:56:28;;;;;;;8.35;4.32;;;;;;;;;;6219504;23;20024;-61
2023/06/10 11:59:04;;;;;;;6.18;4.15;;;;;;;;;;6245897;23;20012;-62
2023/06/10 12:01:33;;;;;;;9.18;4.00;;;;;;;;;;6245848;23;20091;-62
2023/06/10 12:04:05;;;;;;;6.57;4.05;;;;;;;;;;6218983;23;20026;-62
2023/06/10 12:06:59;;;;;;;7.93;4.10;;;;;;;;;;6245503;23;20064;-61
2023/06/10 12:09:27;;;;;;;9.25;4.22;;;;;;;;;;6239749;23;20024;-62
2023/06/10 12:11:59;;;;;;;4.78;3.70;;;;;;;;;;6245437;23;20374;-62
2023/06/10 12:14:47;;;;;;;6.88;4.03;;;;;;;;;;6219070;23;20027;-62
2023/06/10 12:17:15;;;;;;;5.53;3.80;;;;;;;;;;6241967;23;20095;-62
2023/06/10 12:19:43;;;;;;;6.30;3.78;;;;;;;;;;6245024;23;20040;-62
2023/06/10 12:22:10;;;;;;;6.80;3.88;;;;;;;;;;6218963;23;20016;-61
2023/06/10 12:25:02;;;;;;;8.80;3.80;;;;;;;;;;6245150;23;20134;-61
2023/06/10 12:27:33;;;;;;;8.90;3.58;;;;;;;;;;6244772;23;20339;-62
2023/06/10 12:30:04;;;;;;;6.60;3.30;;;;;;;;;;6244286;23;20093;-62
2023/06/10 12:32:42;;;;;;;6.43;3.22;;;;;;;;;;6216597;23;20031;-61
2023/06/10 12:35:11;;;;;;;4.80;3.47;;;;;;;;;;6244947;23;20090;-61
2023/06/10 12:37:43;;;;;;;7.80;3.60;;;;;;;;;;6219338;23;20039;-61
2023/06/10 12:40:11;;;;;;;6.22;3.50;;;;;;;;;;6245526;23;20016;-61
2023/06/10 12:42:39;;;;;;;7.47;4.60;;;;;;;;;;6218486;23;20016;-61
2023/06/10 12:45:11;;;;;;;6.20;3.25;;;;;;;;;;6245835;23;20069;-62
2023/06/10 12:47:41;;;;;;;7.25;4.25;;;;;;;;;;6245264;23;20639;-62
2023/06/10 12:50:09;;;;;;;6.95;3.90;;;;;;;;;;6244863;23;20022;-61
2023/06/10 12:52:37;;;;;;;5.07;3.25;;;;;;;;;;6245779;23;20394;-61
2023/06/10 12:55:06;;;;;;;6.15;3.75;;;;;;;;;;6243952;23;20472;-62
2023/06/10 12:57:34;;;;;;;5.47;3.38;;;;;;;;;;6244984;23;20020;-62
2023/06/10 13:00:08;;;;;;;5.85;3.38;;;;;;;;;;6245354;23;20012;-62
2023/06/10 13:02:36;;;;;;;5.95;3.00;;;;;;;;;;6244500;23;20073;-63
2023/06/10 13:05:06;;;;;;;8.82;3.80;;;;;;;;;;6244833;23;20034;-62
2023/06/10 13:07:34;;;;;;;5.22;3.58;;;;;;;;;;6245070;23;20036;-64
2023/06/10 13:10:02;;;;;;;8.15;3.78;;;;;;;;;;6245192;23;20020;-63
2023/06/10 13:12:30;;;;;;;6.30;3.90;;;;;;;;;;6244992;23;20024;-62
2023/06/10 13:15:14;;;;;;;6.55;3.92;;;;;;;;;;6244960;23;20066;-62
2023/06/10 13:17:42;;;;;;;5.90;4.15;;;;;;;;;;6244874;23;20028;-62
2023/06/10 13:20:10;;;;;;;9.55;4.47;;;;;;;;;;6244754;23;20440;-64
2023/06/10 13:22:38;;;;;;;6.90;4.40;;;;;;;;;;6244767;23;20016;-64
2023/06/10 13:25:08;;;;;;;7.63;3.88;;;;;;;;;;6218340;23;20016;-63
2023/06/10 13:27:41;;;;;;;7.07;4.50;;;;;;;;;;6244998;23;20012;-63
2023/06/10 13:30:10;;;;;;;8.80;5.53;;;;;;;;;;6218487;23;20091;-64
2023/06/10 13:32:38;;;;;;;7.93;5.10;;;;;;;;;;6217717;23;20039;-63
2023/06/10 13:35:08;;;;;;;14.93;6.18;;;;;;;;;;6244726;23;20016;-62
2023/06/10 13:37:36;;;;;;;8.18;4.90;;;;;;;;;;6245050;23;20454;-62
2023/06/10 13:40:04;;;;;;;8.18;5.30;;;;;;;;;;6244938;23;20026;-63
2023/06/10 13:42:32;;;;;;;5.70;4.80;;;;;;;;;;6244807;23;20012;-62
2023/06/10 13:45:00;;;;;;;9.73;5.05;;;;;;;;;;6244168;23;20047;-62
2023/06/10 13:47:27;;;;;;;5.55;4.30;;;;;;;;;;6244756;23;20044;-62
2023/06/10 13:49:55;;;;;;;8.60;4.30;;;;;;;;;;6244515;23;20024;-63
2023/06/10 13:52:22;;;;;;;6.07;4.70;;;;;;;;;;6218015;23;20020;-62
2023/06/10 13:54:53;;;;;;;7.63;4.78;;;;;;;;;;6218770;23;20024;-62
2023/06/10 13:57:20;;;;;;;9.30;4.85;;;;;;;;;;6218244;23;20012;-62
2023/06/10 13:59:48;;;;;;;8.38;4.80;;;;;;;;;;6244583;23;20020;-62
2023/06/10 14:02:16;;;;;;;8.13;5.03;;;;;;;;;;6244281;23;20020;-61
2023/06/10 14:04:44;;;;;;;7.25;4.90;;;;;;;;;;6244577;23;20381;-62
2023/06/10 14:07:11;;;;;;;7.78;5.15;;;;;;;;;;6245943;23;20040;-62
2023/06/10 14:09:39;;;;;;;10.90;5.53;;;;;;;;;;6219780;23;20020;-62
2023/06/10 14:12:06;;;;;;;8.45;5.18;;;;;;;;;;6220189;23;20031;-63
2023/06/10 14:14:34;;;;;;;11.25;5.10;;;;;;;;;;6246829;23;20016;-62
2023/06/10 14:17:03;;;;;;;7.28;4.93;;;;;;;;;;6246534;23;20017;-62
2023/06/10 14:19:30;;;;;;;7.63;4.38;;;;;;;;;;6247056;23;20341;-62
2023/06/10 14:21:58;;;;;;;8.07;4.20;;;;;;;;;;6246681;23;20020;-62
2023/06/10 14:24:25;;;;;;;6.10;3.92;;;;;;;;;;6246697;23;20399;-62
2023/06/10 14:26:53;;;;;;;5.93;3.95;;;;;;;;;;6246405;23;20064;-62
2023/06/10 14:29:21;;;;;;;8.38;4.38;;;;;;;;;;6246506;23;20103;-62
2023/06/10 14:31:49;;;;;;;8.90;4.78;;;;;;;;;;6246319;23;20485;-61
2023/06/10 14:34:16;;;;;;;7.13;4.13;;;;;;;;;;6246299;23;20035;-60
2023/06/10 14:36:46;;;;;;;7.32;4.30;;;;;;;;;;6246524;23;20046;-61
2023/06/10 14:39:14;;;;;;;9.43;4.57;;;;;;;;;;6246248;23;20012;-61
2023/06/10 14:41:41;;;;;;;7.75;5.95;;;;;;;;;;6220233;23;20039;-61
2023/06/10 14:44:09;;;;;;;11.63;6.80;;;;;;;;;;6246375;23;20044;-61
2023/06/10 14:46:37;;;;;;;9.45;4.55;;;;;;;;;;6246494;23;20441;-61
2023/06/10 14:49:04;;;;;;;6.07;4.40;;;;;;;;;;6246422;23;20042;-61
2023/06/10 14:51:32;;;;;;;8.02;4.35;;;;;;;;;;6219878;23;20468;-61
2023/06/10 14:54:03;;;;;;;7.95;4.28;;;;;;;;;;6246321;23;20446;-61